sensor_id;sensor_type;location;lat;lon;timestamp;P1;durP1;ratioP1;P2;durP2;ratioP2
32838;SDS011;19182;41.820;12.808;2023-02-28T00:00:15;20.88;;;13.98;;
32838;SDS011;19182;41.820;12.808;2023-02-28T00:02:44;18.17;;;13.55;;
32838;SDS011;19182;41.820;12.808;2023-02-28T00:05:11;20.88;;;13.98;;
32838;SDS011;19182;41.820;12.808;2023-02-28T00:07:38;23.75;;;15.50;;
32838;SDS011;19182;41.820;12.808;2023-02-28T00:10:05;20.98;;;14.07;;
32838;SDS011;19182;41.820;12.808;2023-02-28T00:12:32;20.92;;;15.05;;
32838;SDS011;19182;41.820;12.808;2023-02-28T00:14:59;23.20;;;14.40;;
32838;SDS011;19182;41.820;12.808;2023-02-28T00:17:25;22.17;;;14.93;;
32838;SDS011;19182;41.820;12.808;2023-02-28T00:19:51;20.63;;;14.65;;
32838;SDS011;19182;41.820;12.808;2023-02-28T00:22:19;23.05;;;15.13;;
32838;SDS011;19182;41.820;12.808;2023-02-28T00:24:45;27.20;;;16.10;;
32838;SDS011;19182;41.820;12.808;2023-02-28T00:27:12;20.95;;;14.93;;
32838;SDS011;19182;41.820;12.808;2023-02-28T00:29:38;27.05;;;15.70;;
32838;SDS011;19182;41.820;12.808;2023-02-28T00:32:05;24.63;;;16.52;;
32838;SDS011;19182;41.820;12.808;2023-02-28T00:34:31;25.45;;;15.82;;
32838;SDS011;19182;41.820;12.808;2023-02-28T00:37:03;20.05;;;15.82;;
32838;SDS011;19182;41.820;12.808;2023-02-28T00:39:30;23.60;;;16.85;;
32838;SDS011;19182;41.820;12.808;2023-02-28T00:41:56;24.30;;;17.60;;
32838;SDS011;19182;41.820;12.808;2023-02-28T00:44:24;22.50;;;17.15;;
32838;SDS011;19182;41.820;12.808;2023-02-28T00:46:50;21.10;;;16.50;;
32838;SDS011;19182;41.820;12.808;2023-02-28T00:49:16;28.65;;;18.92;;
32838;SDS011;19182;41.820;12.808;2023-02-28T00:51:44;30.75;;;17.85;;
32838;SDS011;19182;41.820;12.808;2023-02-28T00:54:11;30.45;;;17.65;;
32838;SDS011;19182;41.820;12.808;2023-02-28T00:56:37;27.35;;;17.88;;
32838;SDS011;19182;41.820;12.808;2023-02-28T00:59:02;25.20;;;16.60;;
32838;SDS011;19182;41.820;12.808;2023-02-28T01:01:28;24.02;;;17.27;;
32838;SDS011;19182;41.820;12.808;2023-02-28T01:03:54;26.42;;;16.95;;
32838;SDS011;19182;41.820;12.808;2023-02-28T01:06:20;27.73;;;17.88;;
32838;SDS011;19182;41.820;12.808;2023-02-28T01:08:45;29.17;;;17.83;;
32838;SDS011;19182;41.820;12.808;2023-02-28T01:11:12;22.48;;;18.20;;
32838;SDS011;19182;41.820;12.808;2023-02-28T01:13:39;30.50;;;19.10;;
32838;SDS011;19182;41.820;12.808;2023-02-28T01:16:06;28.98;;;17.20;;
32838;SDS011;19182;41.820;12.808;2023-02-28T01:18:32;27.48;;;17.23;;
32838;SDS011;19182;41.820;12.808;2023-02-28T01:20:58;26.27;;;18.92;;
32838;SDS011;19182;41.820;12.808;2023-02-28T01:23:28;30.58;;;18.05;;
32838;SDS011;19182;41.820;12.808;2023-02-28T01:25:54;27.02;;;19.02;;
32838;SDS011;19182;41.820;12.808;2023-02-28T01:28:20;24.05;;;18.73;;
32838;SDS011;19182;41.820;12.808;2023-02-28T01:30:49;26.55;;;18.90;;
32838;SDS011;19182;41.820;12.808;2023-02-28T01:33:16;27.33;;;18.73;;
32838;SDS011;19182;41.820;12.808;2023-02-28T01:35:41;29.60;;;19.08;;
32838;SDS011;19182;41.820;12.808;2023-02-28T01:38:07;30.70;;;18.92;;
32838;SDS011;19182;41.820;12.808;2023-02-28T01:40:34;24.33;;;18.70;;
32838;SDS011;19182;41.820;12.808;2023-02-28T01:42:59;25.13;;;17.65;;
32838;SDS011;19182;41.820;12.808;2023-02-28T01:45:26;24.50;;;18.02;;
32838;SDS011;19182;41.820;12.808;2023-02-28T01:47:55;22.60;;;17.10;;
32838;SDS011;19182;41.820;12.808;2023-02-28T01:50:28;31.67;;;18.27;;
32838;SDS011;19182;41.820;12.808;2023-02-28T01:52:58;23.42;;;17.67;;
32838;SDS011;19182;41.820;12.808;2023-02-28T01:55:28;28.33;;;17.05;;
32838;SDS011;19182;41.820;12.808;2023-02-28T01:57:56;21.38;;;15.80;;
32838;SDS011;19182;41.820;12.808;2023-02-28T02:00:27;21.70;;;15.52;;
32838;SDS011;19182;41.820;12.808;2023-02-28T02:03:05;20.25;;;13.65;;
32838;SDS011;19182;41.820;12.808;2023-02-28T02:05:33;18.23;;;13.27;;
32838;SDS011;19182;41.820;12.808;2023-02-28T02:08:12;15.50;;;12.23;;
32838;SDS011;19182;41.820;12.808;2023-02-28T02:10:51;19.83;;;12.25;;
32838;SDS011;19182;41.820;12.808;2023-02-28T02:34:14;14.18;;;8.82;;
32838;SDS011;19182;41.820;12.808;2023-02-28T02:43:03;16.50;;;8.63;;
32838;SDS011;19182;41.820;12.808;2023-02-28T02:48:12;16.15;;;9.35;;
32838;SDS011;19182;41.820;12.808;2023-02-28T02:51:03;16.35;;;9.13;;
32838;SDS011;19182;41.820;12.808;2023-02-28T02:53:34;16.70;;;9.82;;
32838;SDS011;19182;41.820;12.808;2023-02-28T02:56:06;12.60;;;8.85;;
32838;SDS011;19182;41.820;12.808;2023-02-28T02:58:35;14.77;;;9.30;;
32838;SDS011;19182;41.820;12.808;2023-02-28T03:01:07;12.27;;;8.88;;
32838;SDS011;19182;41.820;12.808;2023-02-28T03:03:36;11.20;;;8.60;;
32838;SDS011;19182;41.820;12.808;2023-02-28T03:06:05;14.70;;;9.10;;
32838;SDS011;19182;41.820;12.808;2023-02-28T03:08:35;15.68;;;9.65;;
32838;SDS011;19182;41.820;12.808;2023-02-28T03:11:03;13.88;;;10.05;;
32838;SDS011;19182;41.820;12.808;2023-02-28T03:27:40;13.02;;;8.27;;
32838;SDS011;19182;41.820;12.808;2023-02-28T03:30:24;12.27;;;8.90;;
32838;SDS011;19182;41.820;12.808;2023-02-28T03:33:16;10.35;;;7.50;;
32838;SDS011;19182;41.820;12.808;2023-02-28T03:36:04;12.48;;;7.45;;
32838;SDS011;19182;41.820;12.808;2023-02-28T03:38:40;10.77;;;7.57;;
32838;SDS011;19182;41.820;12.808;2023-02-28T03:43:54;12.70;;;7.70;;
32838;SDS011;19182;41.820;12.808;2023-02-28T03:46:28;8.07;;;6.80;;
32838;SDS011;19182;41.820;12.808;2023-02-28T03:49:09;18.45;;;7.97;;
32838;SDS011;19182;41.820;12.808;2023-02-28T03:51:46;13.73;;;7.68;;
32838;SDS011;19182;41.820;12.808;2023-02-28T03:54:16;11.07;;;7.35;;
32838;SDS011;19182;41.820;12.808;2023-02-28T03:56:55;12.90;;;8.40;;
32838;SDS011;19182;41.820;12.808;2023-02-28T03:59:46;11.65;;;7.57;;
32838;SDS011;19182;41.820;12.808;2023-02-28T04:02:33;16.65;;;8.52;;
32838;SDS011;19182;41.820;12.808;2023-02-28T04:04:59;12.32;;;7.03;;
32838;SDS011;19182;41.820;12.808;2023-02-28T04:07:28;13.05;;;8.40;;
32838;SDS011;19182;41.820;12.808;2023-02-28T04:10:01;11.32;;;7.80;;
32838;SDS011;19182;41.820;12.808;2023-02-28T04:12:27;9.07;;;7.05;;
32838;SDS011;19182;41.820;12.808;2023-02-28T04:14:53;11.32;;;6.80;;
32838;SDS011;19182;41.820;12.808;2023-02-28T04:17:19;10.70;;;6.40;;
32838;SDS011;19182;41.820;12.808;2023-02-28T04:19:45;10.23;;;6.07;;
32838;SDS011;19182;41.820;12.808;2023-02-28T04:22:10;9.02;;;5.43;;
32838;SDS011;19182;41.820;12.808;2023-02-28T04:24:36;6.32;;;5.10;;
32838;SDS011;19182;41.820;12.808;2023-02-28T04:27:06;5.85;;;4.90;;
32838;SDS011;19182;41.820;12.808;2023-02-28T04:29:33;6.72;;;4.85;;
32838;SDS011;19182;41.820;12.808;2023-02-28T04:31:59;7.43;;;4.68;;
32838;SDS011;19182;41.820;12.808;2023-02-28T04:34:27;6.53;;;4.65;;
32838;SDS011;19182;41.820;12.808;2023-02-28T04:36:53;6.13;;;4.70;;
32838;SDS011;19182;41.820;12.808;2023-02-28T04:39:23;7.07;;;5.10;;
32838;SDS011;19182;41.820;12.808;2023-02-28T04:41:49;7.63;;;5.32;;
32838;SDS011;19182;41.820;12.808;2023-02-28T04:44:18;5.47;;;4.47;;
32838;SDS011;19182;41.820;12.808;2023-02-28T04:46:47;5.78;;;4.40;;
32838;SDS011;19182;41.820;12.808;2023-02-28T04:49:13;7.50;;;5.25;;
32838;SDS011;19182;41.820;12.808;2023-02-28T04:51:40;8.07;;;5.20;;
32838;SDS011;19182;41.820;12.808;2023-02-28T04:54:06;7.18;;;5.18;;
32838;SDS011;19182;41.820;12.808;2023-02-28T04:56:32;5.88;;;5.13;;
32838;SDS011;19182;41.820;12.808;2023-02-28T04:58:58;10.85;;;6.60;;
32838;SDS011;19182;41.820;12.808;2023-02-28T05:01:25;9.38;;;5.57;;
32838;SDS011;19182;41.820;12.808;2023-02-28T05:04:01;14.27;;;5.68;;
32838;SDS011;19182;41.820;12.808;2023-02-28T05:06:29;10.27;;;5.60;;
32838;SDS011;19182;41.820;12.808;2023-02-28T05:08:57;11.48;;;6.35;;
32838;SDS011;19182;41.820;12.808;2023-02-28T05:13:51;6.97;;;5.57;;
32838;SDS011;19182;41.820;12.808;2023-02-28T05:16:19;8.60;;;5.63;;
32838;SDS011;19182;41.820;12.808;2023-02-28T05:18:45;8.30;;;5.38;;
32838;SDS011;19182;41.820;12.808;2023-02-28T05:21:22;7.57;;;6.00;;
32838;SDS011;19182;41.820;12.808;2023-02-28T05:23:53;6.28;;;4.97;;
32838;SDS011;19182;41.820;12.808;2023-02-28T05:26:20;8.35;;;4.75;;
32838;SDS011;19182;41.820;12.808;2023-02-28T05:28:45;9.68;;;5.25;;
32838;SDS011;19182;41.820;12.808;2023-02-28T05:31:11;6.78;;;4.72;;
32838;SDS011;19182;41.820;12.808;2023-02-28T05:33:37;7.72;;;4.95;;
32838;SDS011;19182;41.820;12.808;2023-02-28T05:36:03;6.30;;;5.10;;
32838;SDS011;19182;41.820;12.808;2023-02-28T05:38:29;8.07;;;5.07;;
32838;SDS011;19182;41.820;12.808;2023-02-28T05:40:55;8.00;;;5.28;;
32838;SDS011;19182;41.820;12.808;2023-02-28T05:43:21;7.90;;;5.07;;
32838;SDS011;19182;41.820;12.808;2023-02-28T05:45:47;6.82;;;5.05;;
32838;SDS011;19182;41.820;12.808;2023-02-28T05:48:13;7.80;;;4.63;;
32838;SDS011;19182;41.820;12.808;2023-02-28T05:50:39;5.85;;;5.07;;
32838;SDS011;19182;41.820;12.808;2023-02-28T05:53:04;5.72;;;4.88;;
32838;SDS011;19182;41.820;12.808;2023-02-28T05:55:30;6.65;;;5.20;;
32838;SDS011;19182;41.820;12.808;2023-02-28T05:57:56;7.30;;;4.78;;
32838;SDS011;19182;41.820;12.808;2023-02-28T06:00:22;6.10;;;4.82;;
32838;SDS011;19182;41.820;12.808;2023-02-28T06:02:48;7.97;;;4.65;;
32838;SDS011;19182;41.820;12.808;2023-02-28T06:05:15;7.07;;;5.00;;
32838;SDS011;19182;41.820;12.808;2023-02-28T06:07:42;7.75;;;4.82;;
32838;SDS011;19182;41.820;12.808;2023-02-28T06:10:09;7.82;;;4.78;;
32838;SDS011;19182;41.820;12.808;2023-02-28T06:12:35;11.60;;;4.82;;
32838;SDS011;19182;41.820;12.808;2023-02-28T06:15:06;6.43;;;4.70;;
32838;SDS011;19182;41.820;12.808;2023-02-28T06:17:32;5.70;;;4.38;;
32838;SDS011;19182;41.820;12.808;2023-02-28T06:19:58;6.18;;;4.82;;
32838;SDS011;19182;41.820;12.808;2023-02-28T06:22:24;7.50;;;5.05;;
32838;SDS011;19182;41.820;12.808;2023-02-28T06:24:50;8.20;;;5.20;;
32838;SDS011;19182;41.820;12.808;2023-02-28T06:27:20;6.18;;;5.05;;
32838;SDS011;19182;41.820;12.808;2023-02-28T06:29:47;10.05;;;6.03;;
32838;SDS011;19182;41.820;12.808;2023-02-28T06:32:12;5.93;;;4.53;;
32838;SDS011;19182;41.820;12.808;2023-02-28T06:34:39;7.57;;;4.90;;
32838;SDS011;19182;41.820;12.808;2023-02-28T06:37:07;6.57;;;4.57;;
32838;SDS011;19182;41.820;12.808;2023-02-28T06:39:33;5.82;;;4.13;;
32838;SDS011;19182;41.820;12.808;2023-02-28T06:41:59;7.35;;;5.32;;
32838;SDS011;19182;41.820;12.808;2023-02-28T06:44:24;4.95;;;4.28;;
32838;SDS011;19182;41.820;12.808;2023-02-28T06:46:50;4.30;;;3.90;;
32838;SDS011;19182;41.820;12.808;2023-02-28T06:49:17;6.95;;;4.45;;
32838;SDS011;19182;41.820;12.808;2023-02-28T06:51:43;6.65;;;4.53;;
32838;SDS011;19182;41.820;12.808;2023-02-28T06:54:10;8.02;;;4.30;;
32838;SDS011;19182;41.820;12.808;2023-02-28T06:56:36;6.78;;;4.03;;
32838;SDS011;19182;41.820;12.808;2023-02-28T06:59:02;7.03;;;4.32;;
32838;SDS011;19182;41.820;12.808;2023-02-28T07:01:28;8.57;;;4.20;;
32838;SDS011;19182;41.820;12.808;2023-02-28T07:03:56;6.35;;;3.70;;
32838;SDS011;19182;41.820;12.808;2023-02-28T07:06:23;7.95;;;3.42;;
32838;SDS011;19182;41.820;12.808;2023-02-28T07:08:52;4.65;;;3.40;;
32838;SDS011;19182;41.820;12.808;2023-02-28T07:11:19;5.93;;;3.45;;
32838;SDS011;19182;41.820;12.808;2023-02-28T07:13:47;6.55;;;3.03;;
32838;SDS011;19182;41.820;12.808;2023-02-28T07:16:13;5.03;;;3.40;;
32838;SDS011;19182;41.820;12.808;2023-02-28T07:18:40;8.55;;;3.90;;
32838;SDS011;19182;41.820;12.808;2023-02-28T07:21:06;5.43;;;3.60;;
32838;SDS011;19182;41.820;12.808;2023-02-28T07:23:33;7.60;;;3.75;;
32838;SDS011;19182;41.820;12.808;2023-02-28T07:26:00;6.60;;;3.35;;
32838;SDS011;19182;41.820;12.808;2023-02-28T07:28:26;4.82;;;3.58;;
32838;SDS011;19182;41.820;12.808;2023-02-28T07:30:52;5.50;;;3.20;;
32838;SDS011;19182;41.820;12.808;2023-02-28T07:33:17;10.55;;;3.30;;
32838;SDS011;19182;41.820;12.808;2023-02-28T07:35:43;4.00;;;3.10;;
32838;SDS011;19182;41.820;12.808;2023-02-28T07:38:09;5.75;;;3.47;;
32838;SDS011;19182;41.820;12.808;2023-02-28T07:40:35;5.57;;;3.00;;
32838;SDS011;19182;41.820;12.808;2023-02-28T07:43:02;3.47;;;2.80;;
32838;SDS011;19182;41.820;12.808;2023-02-28T07:45:28;3.17;;;2.53;;
32838;SDS011;19182;41.820;12.808;2023-02-28T07:47:55;5.65;;;2.67;;
32838;SDS011;19182;41.820;12.808;2023-02-28T07:50:21;3.70;;;2.53;;
32838;SDS011;19182;41.820;12.808;2023-02-28T07:52:47;3.15;;;2.60;;
32838;SDS011;19182;41.820;12.808;2023-02-28T07:55:13;5.40;;;3.05;;
32838;SDS011;19182;41.820;12.808;2023-02-28T07:57:39;4.40;;;2.63;;
32838;SDS011;19182;41.820;12.808;2023-02-28T08:00:06;4.95;;;2.42;;
32838;SDS011;19182;41.820;12.808;2023-02-28T08:02:35;3.40;;;2.70;;
32838;SDS011;19182;41.820;12.808;2023-02-28T08:05:05;2.58;;;2.22;;
32838;SDS011;19182;41.820;12.808;2023-02-28T08:07:32;4.22;;;2.00;;
32838;SDS011;19182;41.820;12.808;2023-02-28T08:09:58;4.00;;;2.08;;
32838;SDS011;19182;41.820;12.808;2023-02-28T08:12:24;2.67;;;2.08;;
32838;SDS011;19182;41.820;12.808;2023-02-28T08:14:50;5.05;;;2.17;;
32838;SDS011;19182;41.820;12.808;2023-02-28T08:17:16;2.53;;;1.75;;
32838;SDS011;19182;41.820;12.808;2023-02-28T08:19:41;2.92;;;1.83;;
32838;SDS011;19182;41.820;12.808;2023-02-28T08:22:10;4.32;;;1.90;;
32838;SDS011;19182;41.820;12.808;2023-02-28T08:24:35;4.15;;;2.38;;
32838;SDS011;19182;41.820;12.808;2023-02-28T08:27:01;3.13;;;2.00;;
32838;SDS011;19182;41.820;12.808;2023-02-28T08:29:28;2.58;;;1.60;;
32838;SDS011;19182;41.820;12.808;2023-02-28T08:34:23;4.75;;;2.00;;
32838;SDS011;19182;41.820;12.808;2023-02-28T08:36:49;5.95;;;1.88;;
32838;SDS011;19182;41.820;12.808;2023-02-28T08:39:15;4.90;;;2.40;;
32838;SDS011;19182;41.820;12.808;2023-02-28T08:41:41;3.72;;;1.60;;
32838;SDS011;19182;41.820;12.808;2023-02-28T08:44:09;4.30;;;1.73;;
32838;SDS011;19182;41.820;12.808;2023-02-28T08:46:34;1.90;;;1.73;;
32838;SDS011;19182;41.820;12.808;2023-02-28T08:49:01;4.15;;;1.60;;
32838;SDS011;19182;41.820;12.808;2023-02-28T08:51:27;3.65;;;1.88;;
32838;SDS011;19182;41.820;12.808;2023-02-28T08:53:54;4.00;;;1.65;;
32838;SDS011;19182;41.820;12.808;2023-02-28T08:56:22;2.58;;;1.50;;
32838;SDS011;19182;41.820;12.808;2023-02-28T08:58:49;2.15;;;1.50;;
32838;SDS011;19182;41.820;12.808;2023-02-28T09:01:16;1.75;;;1.52;;
32838;SDS011;19182;41.820;12.808;2023-02-28T09:03:45;2.13;;;1.63;;
32838;SDS011;19182;41.820;12.808;2023-02-28T09:06:13;1.90;;;1.38;;
32838;SDS011;19182;41.820;12.808;2023-02-28T09:08:40;1.80;;;1.30;;
32838;SDS011;19182;41.820;12.808;2023-02-28T09:11:06;3.38;;;1.25;;
32838;SDS011;19182;41.820;12.808;2023-02-28T09:13:35;1.40;;;1.30;;
32838;SDS011;19182;41.820;12.808;2023-02-28T09:16:02;4.18;;;1.60;;
32838;SDS011;19182;41.820;12.808;2023-02-28T09:18:29;1.35;;;1.05;;
32838;SDS011;19182;41.820;12.808;2023-02-28T09:20:57;1.80;;;1.00;;
32838;SDS011;19182;41.820;12.808;2023-02-28T09:23:23;1.42;;;0.77;;
32838;SDS011;19182;41.820;12.808;2023-02-28T09:25:51;2.00;;;1.10;;
32838;SDS011;19182;41.820;12.808;2023-02-28T09:28:20;3.72;;;1.27;;
32838;SDS011;19182;41.820;12.808;2023-02-28T09:30:50;1.85;;;1.30;;
32838;SDS011;19182;41.820;12.808;2023-02-28T09:33:18;2.83;;;1.63;;
32838;SDS011;19182;41.820;12.808;2023-02-28T09:35:48;2.13;;;1.40;;
32838;SDS011;19182;41.820;12.808;2023-02-28T09:38:15;4.70;;;1.67;;
32838;SDS011;19182;41.820;12.808;2023-02-28T09:40:49;2.95;;;1.50;;
32838;SDS011;19182;41.820;12.808;2023-02-28T09:43:17;2.50;;;1.10;;
32838;SDS011;19182;41.820;12.808;2023-02-28T09:45:48;2.30;;;1.25;;
32838;SDS011;19182;41.820;12.808;2023-02-28T09:48:33;1.75;;;1.25;;
32838;SDS011;19182;41.820;12.808;2023-02-28T09:53:48;2.83;;;1.30;;
32838;SDS011;19182;41.820;12.808;2023-02-28T09:56:22;2.58;;;1.40;;
32838;SDS011;19182;41.820;12.808;2023-02-28T09:59:00;3.40;;;1.80;;
32838;SDS011;19182;41.820;12.808;2023-02-28T10:01:38;2.88;;;1.58;;
32838;SDS011;19182;41.820;12.808;2023-02-28T10:04:35;3.10;;;1.67;;
32838;SDS011;19182;41.820;12.808;2023-02-28T10:07:07;5.57;;;1.90;;
32838;SDS011;19182;41.820;12.808;2023-02-28T10:09:45;4.78;;;2.10;;
32838;SDS011;19182;41.820;12.808;2023-02-28T10:14:44;2.72;;;1.65;;
32838;SDS011;19182;41.820;12.808;2023-02-28T10:25:23;5.20;;;1.77;;
32838;SDS011;19182;41.820;12.808;2023-02-28T10:27:52;6.13;;;2.22;;
32838;SDS011;19182;41.820;12.808;2023-02-28T10:30:21;3.47;;;2.00;;
32838;SDS011;19182;41.820;12.808;2023-02-28T10:32:51;3.00;;;2.33;;
32838;SDS011;19182;41.820;12.808;2023-02-28T10:37:47;4.38;;;1.80;;
32838;SDS011;19182;41.820;12.808;2023-02-28T10:45:22;2.83;;;1.77;;
32838;SDS011;19182;41.820;12.808;2023-02-28T10:47:57;4.35;;;1.90;;
32838;SDS011;19182;41.820;12.808;2023-02-28T10:56:06;5.88;;;1.83;;
32838;SDS011;19182;41.820;12.808;2023-02-28T10:58:57;3.00;;;1.30;;
32838;SDS011;19182;41.820;12.808;2023-02-28T11:01:34;2.97;;;1.30;;
32838;SDS011;19182;41.820;12.808;2023-02-28T11:04:00;3.13;;;1.73;;
32838;SDS011;19182;41.820;12.808;2023-02-28T11:07:00;3.17;;;1.15;;
32838;SDS011;19182;41.820;12.808;2023-02-28T11:09:55;5.63;;;1.90;;
32838;SDS011;19182;41.820;12.808;2023-02-28T11:12:36;2.80;;;1.23;;
32838;SDS011;19182;41.820;12.808;2023-02-28T11:15:04;3.00;;;1.50;;
32838;SDS011;19182;41.820;12.808;2023-02-28T11:17:43;4.07;;;1.95;;
32838;SDS011;19182;41.820;12.808;2023-02-28T11:20:10;4.68;;;1.75;;
32838;SDS011;19182;41.820;12.808;2023-02-28T11:22:48;5.28;;;2.35;;
32838;SDS011;19182;41.820;12.808;2023-02-28T11:27:57;6.30;;;2.13;;
32838;SDS011;19182;41.820;12.808;2023-02-28T11:33:26;6.35;;;2.05;;
32838;SDS011;19182;41.820;12.808;2023-02-28T11:36:17;3.88;;;2.10;;
32838;SDS011;19182;41.820;12.808;2023-02-28T11:38:51;6.00;;;2.30;;
32838;SDS011;19182;41.820;12.808;2023-02-28T11:44:20;4.72;;;2.35;;
32838;SDS011;19182;41.820;12.808;2023-02-28T11:46:49;4.20;;;2.30;;
32838;SDS011;19182;41.820;12.808;2023-02-28T11:49:37;4.15;;;2.70;;
32838;SDS011;19182;41.820;12.808;2023-02-28T11:52:35;9.93;;;2.63;;
32838;SDS011;19182;41.820;12.808;2023-02-28T12:03:39;4.88;;;1.67;;
32838;SDS011;19182;41.820;12.808;2023-02-28T12:06:37;4.13;;;2.10;;
32838;SDS011;19182;41.820;12.808;2023-02-28T12:12:11;5.88;;;2.30;;
32838;SDS011;19182;41.820;12.808;2023-02-28T12:17:59;5.95;;;2.20;;
32838;SDS011;19182;41.820;12.808;2023-02-28T12:23:23;9.57;;;2.30;;
32838;SDS011;19182;41.820;12.808;2023-02-28T12:28:59;6.72;;;2.40;;
32838;SDS011;19182;41.820;12.808;2023-02-28T12:31:35;7.70;;;1.60;;
32838;SDS011;19182;41.820;12.808;2023-02-28T12:34:05;5.95;;;1.88;;
32838;SDS011;19182;41.820;12.808;2023-02-28T12:36:44;7.35;;;2.15;;
32838;SDS011;19182;41.820;12.808;2023-02-28T12:39:30;6.45;;;1.60;;
32838;SDS011;19182;41.820;12.808;2023-02-28T12:42:01;5.55;;;1.65;;
32838;SDS011;19182;41.820;12.808;2023-02-28T12:44:37;6.25;;;1.45;;
32838;SDS011;19182;41.820;12.808;2023-02-28T12:47:13;8.20;;;1.45;;
32838;SDS011;19182;41.820;12.808;2023-02-28T12:52:22;4.22;;;2.50;;
32838;SDS011;19182;41.820;12.808;2023-02-28T12:54:59;7.22;;;1.73;;
32838;SDS011;19182;41.820;12.808;2023-02-28T12:57:36;4.82;;;2.10;;
32838;SDS011;19182;41.820;12.808;2023-02-28T13:00:19;7.63;;;1.35;;
32838;SDS011;19182;41.820;12.808;2023-02-28T13:10:48;6.60;;;2.58;;
32838;SDS011;19182;41.820;12.808;2023-02-28T13:13:25;8.77;;;2.75;;
32838;SDS011;19182;41.820;12.808;2023-02-28T13:16:09;7.75;;;2.50;;
32838;SDS011;19182;41.820;12.808;2023-02-28T13:18:37;8.48;;;2.00;;
32838;SDS011;19182;41.820;12.808;2023-02-28T13:21:22;11.70;;;2.20;;
32838;SDS011;19182;41.820;12.808;2023-02-28T13:31:24;9.98;;;2.40;;
32838;SDS011;19182;41.820;12.808;2023-02-28T13:36:29;9.50;;;2.08;;
32838;SDS011;19182;41.820;12.808;2023-02-28T13:39:01;5.20;;;1.80;;
32838;SDS011;19182;41.820;12.808;2023-02-28T13:44:00;7.93;;;1.77;;
32838;SDS011;19182;41.820;12.808;2023-02-28T13:46:28;8.82;;;2.03;;
32838;SDS011;19182;41.820;12.808;2023-02-28T13:48:54;6.85;;;2.30;;
32838;SDS011;19182;41.820;12.808;2023-02-28T13:51:40;10.35;;;2.92;;
32838;SDS011;19182;41.820;12.808;2023-02-28T14:03:22;7.47;;;2.40;;
32838;SDS011;19182;41.820;12.808;2023-02-28T14:06:29;7.80;;;1.98;;
32838;SDS011;19182;41.820;12.808;2023-02-28T14:09:01;5.47;;;2.20;;
32838;SDS011;19182;41.820;12.808;2023-02-28T14:13:57;9.13;;;3.08;;
32838;SDS011;19182;41.820;12.808;2023-02-28T14:16:25;12.10;;;2.72;;
32838;SDS011;19182;41.820;12.808;2023-02-28T14:18:58;12.23;;;3.03;;
32838;SDS011;19182;41.820;12.808;2023-02-28T14:22:12;8.45;;;2.63;;
32838;SDS011;19182;41.820;12.808;2023-02-28T14:24:57;10.02;;;3.80;;
32838;SDS011;19182;41.820;12.808;2023-02-28T14:33:35;6.38;;;2.03;;
32838;SDS011;19182;41.820;12.808;2023-02-28T14:36:17;5.93;;;2.83;;
32838;SDS011;19182;41.820;12.808;2023-02-28T14:38:51;11.95;;;2.42;;
32838;SDS011;19182;41.820;12.808;2023-02-28T14:41:30;9.88;;;2.50;;
32838;SDS011;19182;41.820;12.808;2023-02-28T14:44:02;6.38;;;2.60;;
32838;SDS011;19182;41.820;12.808;2023-02-28T14:46:43;6.25;;;3.60;;
32838;SDS011;19182;41.820;12.808;2023-02-28T14:49:24;9.77;;;2.83;;
32838;SDS011;19182;41.820;12.808;2023-02-28T14:52:13;10.32;;;3.13;;
32838;SDS011;19182;41.820;12.808;2023-02-28T14:55:03;9.32;;;3.88;;
32838;SDS011;19182;41.820;12.808;2023-02-28T14:57:41;15.32;;;6.53;;
32838;SDS011;19182;41.820;12.808;2023-02-28T15:00:32;13.82;;;4.95;;
32838;SDS011;19182;41.820;12.808;2023-02-28T15:03:01;15.05;;;5.90;;
32838;SDS011;19182;41.820;12.808;2023-02-28T15:05:57;19.75;;;7.60;;
32838;SDS011;19182;41.820;12.808;2023-02-28T15:08:27;20.63;;;6.95;;
32838;SDS011;19182;41.820;12.808;2023-02-28T15:11:01;18.65;;;8.55;;
32838;SDS011;19182;41.820;12.808;2023-02-28T15:13:52;8.88;;;4.25;;
32838;SDS011;19182;41.820;12.808;2023-02-28T15:16:21;12.13;;;5.38;;
32838;SDS011;19182;41.820;12.808;2023-02-28T15:21:32;14.38;;;4.57;;
32838;SDS011;19182;41.820;12.808;2023-02-28T15:26:33;9.93;;;4.07;;
32838;SDS011;19182;41.820;12.808;2023-02-28T15:29:11;8.63;;;3.88;;
32838;SDS011;19182;41.820;12.808;2023-02-28T15:31:45;16.83;;;4.75;;
32838;SDS011;19182;41.820;12.808;2023-02-28T15:34:21;9.07;;;4.30;;
32838;SDS011;19182;41.820;12.808;2023-02-28T15:37:23;8.90;;;4.25;;
32838;SDS011;19182;41.820;12.808;2023-02-28T15:43:00;11.70;;;4.10;;
32838;SDS011;19182;41.820;12.808;2023-02-28T15:48:03;10.25;;;4.03;;
32838;SDS011;19182;41.820;12.808;2023-02-28T15:50:42;10.23;;;3.58;;
32838;SDS011;19182;41.820;12.808;2023-02-28T15:53:15;18.50;;;4.72;;
32838;SDS011;19182;41.820;12.808;2023-02-28T15:55:59;12.80;;;5.22;;
32838;SDS011;19182;41.820;12.808;2023-02-28T15:58:27;12.45;;;5.22;;
32838;SDS011;19182;41.820;12.808;2023-02-28T16:01:00;9.60;;;4.97;;
32838;SDS011;19182;41.820;12.808;2023-02-28T16:03:37;10.57;;;4.40;;
32838;SDS011;19182;41.820;12.808;2023-02-28T16:08:49;9.10;;;4.70;;
32838;SDS011;19182;41.820;12.808;2023-02-28T16:11:18;16.50;;;6.95;;
32838;SDS011;19182;41.820;12.808;2023-02-28T16:13:46;18.98;;;9.73;;
32838;SDS011;19182;41.820;12.808;2023-02-28T16:16:17;7.25;;;4.18;;
32838;SDS011;19182;41.820;12.808;2023-02-28T16:18:47;8.35;;;5.18;;
32838;SDS011;19182;41.820;12.808;2023-02-28T16:21:14;11.63;;;5.32;;
32838;SDS011;19182;41.820;12.808;2023-02-28T16:23:40;12.98;;;6.28;;
32838;SDS011;19182;41.820;12.808;2023-02-28T16:26:06;13.75;;;7.82;;
32838;SDS011;19182;41.820;12.808;2023-02-28T16:28:35;21.63;;;13.43;;
32838;SDS011;19182;41.820;12.808;2023-02-28T16:31:04;24.40;;;15.77;;
32838;SDS011;19182;41.820;12.808;2023-02-28T16:33:31;24.88;;;16.17;;
32838;SDS011;19182;41.820;12.808;2023-02-28T16:35:58;17.85;;;9.13;;
32838;SDS011;19182;41.820;12.808;2023-02-28T16:38:24;14.48;;;8.15;;
32838;SDS011;19182;41.820;12.808;2023-02-28T16:40:51;18.77;;;7.90;;
32838;SDS011;19182;41.820;12.808;2023-02-28T16:43:22;16.65;;;8.43;;
32838;SDS011;19182;41.820;12.808;2023-02-28T16:45:52;17.43;;;9.20;;
32838;SDS011;19182;41.820;12.808;2023-02-28T16:48:25;17.27;;;10.73;;
32838;SDS011;19182;41.820;12.808;2023-02-28T16:50:50;12.93;;;7.95;;
32838;SDS011;19182;41.820;12.808;2023-02-28T16:53:17;16.45;;;9.25;;
32838;SDS011;19182;41.820;12.808;2023-02-28T16:55:43;15.88;;;9.80;;
32838;SDS011;19182;41.820;12.808;2023-02-28T16:58:13;10.75;;;6.70;;
32838;SDS011;19182;41.820;12.808;2023-02-28T17:00:40;14.13;;;7.00;;
32838;SDS011;19182;41.820;12.808;2023-02-28T17:03:14;12.65;;;7.28;;
32838;SDS011;19182;41.820;12.808;2023-02-28T17:05:48;13.35;;;6.65;;
32838;SDS011;19182;41.820;12.808;2023-02-28T17:08:14;11.65;;;5.90;;
32838;SDS011;19182;41.820;12.808;2023-02-28T17:10:41;8.68;;;6.10;;
32838;SDS011;19182;41.820;12.808;2023-02-28T17:13:07;12.02;;;6.15;;
32838;SDS011;19182;41.820;12.808;2023-02-28T17:15:33;16.75;;;7.93;;
32838;SDS011;19182;41.820;12.808;2023-02-28T17:18:01;9.55;;;6.22;;
32838;SDS011;19182;41.820;12.808;2023-02-28T17:20:27;12.98;;;6.30;;
32838;SDS011;19182;41.820;12.808;2023-02-28T17:22:53;11.00;;;7.25;;
32838;SDS011;19182;41.820;12.808;2023-02-28T17:25:20;12.32;;;6.57;;
32838;SDS011;19182;41.820;12.808;2023-02-28T17:27:46;12.13;;;6.85;;